Time;durP1;ratioP1;P1;durP2;ratioP2;P2;SDS_P1;SDS_P2;PMS_P1;PMS_P2;Temp;Humidity;BMP_temperature;BMP_pressure;BME280_temperature;BME280_humidity;BME280_pressure;Samples;Min_cycle;Max_cycle;Signal;HPM_P1;HPM_P2
2021/06/20 00:00:13;;;;;;;18.50;16.63;;;26.50;99.90;;;;;;5157528;27;20435;-53
2021/06/20 00:02:40;;;;;;;118.13;94.23;;;26.40;99.90;;;;;;5158194;27;20439;-51
2021/06/20 00:05:11;;;;;;;22.70;19.53;;;26.40;99.90;;;;;;5158033;27;20468;-57
2021/06/20 00:07:39;;;;;;;17.37;15.43;;;26.40;99.90;;;;;;5158302;27;20519;-53
2021/06/20 00:10:08;;;;;;;18.93;17.03;;;26.30;99.90;;;;;;5157820;27;20462;-55
2021/06/20 00:12:36;;;;;;;21.80;19.07;;;26.30;99.90;;;;;;5158432;27;20438;-53
2021/06/20 00:15:03;;;;;;;17.93;16.10;;;26.30;99.90;;;;;;5157688;27;20499;-51
2021/06/20 00:17:29;;;;;;;15.93;14.27;;;26.20;99.90;;;;;;5158510;27;20737;-50
2021/06/20 00:19:56;;;;;;;14.50;13.13;;;26.20;99.90;;;;;;5157984;27;20947;-50
2021/06/20 00:22:24;;;;;;;14.40;13.00;;;26.20;99.90;;;;;;5157714;27;20442;-51
2021/06/20 00:24:51;;;;;;;16.77;15.07;;;26.20;99.90;;;;;;5157768;27;20435;-54
2021/06/20 00:27:17;;;;;;;14.83;13.30;;;26.20;99.90;;;;;;5157744;27;20782;-55
2021/06/20 00:29:44;;;;;;;18.70;12.97;;;26.20;99.90;;;;;;5157541;27;20442;-56
2021/06/20 00:32:10;;;;;;;13.97;12.50;;;26.10;99.90;;;;;;5157761;27;20482;-50
2021/06/20 00:34:37;;;;;;;26.77;15.20;;;26.10;99.90;;;;;;5157556;27;20458;-54
2021/06/20 00:37:06;;;;;;;21.43;12.60;;;26.10;99.90;;;;;;5157824;27;20439;-51
2021/06/20 00:39:34;;;;;;;14.23;12.70;;;26.10;99.90;;;;;;5157875;27;20439;-52
2021/06/20 00:42:01;;;;;;;16.17;13.37;;;26.00;99.90;;;;;;5157619;27;20431;-52
2021/06/20 00:44:28;;;;;;;16.73;13.27;;;26.00;99.90;;;;;;5157510;27;20442;-54
2021/06/20 00:46:54;;;;;;;13.83;12.53;;;25.90;99.90;;;;;;5136681;27;20459;-55
2021/06/20 00:49:21;;;;;;;13.63;12.40;;;25.90;99.90;;;;;;5136895;27;20501;-53
2021/06/20 00:51:48;;;;;;;16.57;13.30;;;25.90;99.90;;;;;;5138031;27;20487;-46
2021/06/20 00:54:14;;;;;;;17.53;13.33;;;25.90;99.90;;;;;;5137104;27;20818;-49
2021/06/20 00:56:42;;;;;;;20.23;14.10;;;25.90;99.90;;;;;;5137110;28;20822;-51
2021/06/20 00:59:09;;;;;;;14.83;12.70;;;25.90;99.90;;;;;;5136932;28;20500;-52
2021/06/20 01:01:36;;;;;;;16.87;12.33;;;25.80;99.90;;;;;;5137154;27;20928;-51
2021/06/20 01:04:03;;;;;;;13.27;11.63;;;25.80;99.90;;;;;;5137119;28;20856;-53
2021/06/20 01:06:29;;;;;;;15.40;13.80;;;25.80;99.90;;;;;;5136887;28;20454;-51
2021/06/20 01:08:57;;;;;;;23.67;12.97;;;25.80;99.90;;;;;;5136782;28;20463;-48
2021/06/20 01:11:23;;;;;;;15.63;13.33;;;25.80;99.90;;;;;;5136799;28;20479;-51
2021/06/20 01:13:51;;;;;;;15.13;13.50;;;25.70;99.90;;;;;;5136993;28;20447;-53
2021/06/20 01:16:18;;;;;;;16.03;14.53;;;25.70;99.90;;;;;;5137685;27;20440;-52
2021/06/20 01:18:45;;;;;;;22.30;15.23;;;25.70;99.90;;;;;;5136342;28;20459;-55
2021/06/20 01:21:12;;;;;;;18.63;13.63;;;25.60;99.90;;;;;;5136572;28;20431;-48
2021/06/20 01:23:40;;;;;;;16.87;12.03;;;25.50;99.90;;;;;;5136835;28;20465;-54
2021/06/20 01:26:07;;;;;;;18.30;16.33;;;25.50;99.90;;;;;;5136203;27;20443;-53
2021/06/20 01:28:41;;;;;;;14.93;11.83;;;25.50;99.90;;;;;;5135970;28;20488;-54
2021/06/20 01:31:11;;;;;;;15.10;13.60;;;25.50;99.90;;;;;;5136312;28;20581;-54
2021/06/20 01:33:39;;;;;;;15.87;14.30;;;25.50;99.90;;;;;;5137139;27;20528;-55
2021/06/20 01:36:06;;;;;;;18.83;15.47;;;25.40;99.90;;;;;;5138961;27;20494;-55
2021/06/20 01:38:34;;;;;;;17.40;14.20;;;25.40;99.90;;;;;;5139810;27;20488;-53
2021/06/20 01:41:02;;;;;;;14.47;13.07;;;25.40;99.90;;;;;;5139848;27;20908;-53
2021/06/20 01:43:28;;;;;;;14.10;12.77;;;25.30;99.90;;;;;;5145481;27;20516;-51
2021/06/20 01:45:56;;;;;;;16.13;14.47;;;25.30;99.90;;;;;;5140455;27;20771;-49
2021/06/20 01:48:22;;;;;;;16.07;12.80;;;25.30;99.90;;;;;;5142167;27;20504;-50
2021/06/20 01:50:49;;;;;;;16.13;14.43;;;25.30;99.90;;;;;;5139233;27;20482;-48
2021/06/20 01:53:17;;;;;;;17.13;15.53;;;25.30;99.90;;;;;;5138742;27;20431;-50
2021/06/20 01:55:46;;;;;;;16.37;14.73;;;25.20;99.90;;;;;;5139518;27;20454;-48
2021/06/20 01:58:16;;;;;;;21.90;16.17;;;25.30;99.90;;;;;;5139906;27;20503;-49
2021/06/20 02:00:45;;;;;;;19.90;14.87;;;25.30;99.90;;;;;;5139270;27;20992;-50
2021/06/20 02:03:13;;;;;;;16.53;14.77;;;25.30;99.90;;;;;;5139944;27;20440;-51
2021/06/20 02:05:44;;;;;;;17.20;14.90;;;25.30;99.90;;;;;;5139899;27;20439;-48
2021/06/20 02:08:11;;;;;;;16.97;15.37;;;25.30;99.90;;;;;;5144069;22;20756;-47
2021/06/20 02:10:38;;;;;;;17.20;15.47;;;25.20;99.90;;;;;;5078841;28;20427;-55
2021/06/20 02:13:05;;;;;;;16.37;14.63;;;25.20;99.90;;;;;;5078327;28;20837;-52
2021/06/20 02:15:34;;;;;;;17.00;15.10;;;25.10;99.90;;;;;;5078374;28;20816;-53
2021/06/20 02:18:01;;;;;;;16.83;15.03;;;25.10;99.90;;;;;;5078265;28;20924;-52
2021/06/20 02:20:27;;;;;;;15.80;14.10;;;25.10;99.90;;;;;;5078385;28;20559;-47
2021/06/20 02:22:54;;;;;;;17.10;15.30;;;25.00;99.90;;;;;;5078348;28;20503;-52
2021/06/20 02:25:22;;;;;;;18.30;16.50;;;25.00;99.90;;;;;;5078338;28;20462;-50
2021/06/20 02:27:51;;;;;;;17.43;15.20;;;25.00;99.90;;;;;;5071596;28;20463;-49
2021/06/20 02:30:19;;;;;;;22.90;17.13;;;25.00;99.90;;;;;;5058335;28;20916;-51
2021/06/20 02:32:48;;;;;;;17.17;15.23;;;25.00;99.90;;;;;;5057792;28;20498;-55
2021/06/20 02:35:16;;;;;;;16.27;14.70;;;25.00;99.90;;;;;;5057934;28;20774;-55
2021/06/20 02:37:45;;;;;;;17.50;15.73;;;24.90;99.90;;;;;;5058387;28;20455;-50
2021/06/20 02:40:13;;;;;;;17.90;16.00;;;24.90;99.90;;;;;;5058304;28;20455;-48
2021/06/20 02:42:40;;;;;;;16.87;15.07;;;24.90;99.90;;;;;;5058294;28;20462;-54
2021/06/20 02:45:11;;;;;;;16.53;15.00;;;24.90;99.90;;;;;;5058420;28;20448;-50
2021/06/20 02:47:38;;;;;;;16.77;15.27;;;24.90;99.90;;;;;;5058086;28;20428;-52
2021/06/20 02:50:08;;;;;;;21.90;17.20;;;24.90;99.90;;;;;;5057439;28;20439;-50
2021/06/20 02:52:35;;;;;;;21.23;16.03;;;24.80;99.90;;;;;;5057826;28;20466;-52
2021/06/20 02:55:02;;;;;;;16.47;14.67;;;24.80;99.90;;;;;;5057872;28;20443;-53
2021/06/20 02:57:31;;;;;;;17.40;15.17;;;24.80;99.90;;;;;;5057570;28;20495;-51
2021/06/20 03:00:01;;;;;;;17.33;15.63;;;24.80;99.90;;;;;;5057327;28;20500;-53
2021/06/20 03:02:27;;;;;;;17.23;15.80;;;24.70;99.90;;;;;;5057096;28;20435;-53
2021/06/20 03:04:55;;;;;;;16.77;15.20;;;24.70;99.90;;;;;;5057402;28;20458;-50
2021/06/20 03:07:23;;;;;;;17.83;16.13;;;24.70;99.90;;;;;;5056991;28;20455;-54
2021/06/20 03:09:50;;;;;;;18.90;17.10;;;24.70;99.90;;;;;;5057582;28;20940;-52
2021/06/20 03:12:18;;;;;;;17.90;16.07;;;24.70;99.90;;;;;;5057289;28;20487;-51
2021/06/20 03:14:46;;;;;;;17.77;15.83;;;24.60;99.90;;;;;;5057695;28;20447;-51
2021/06/20 03:17:14;;;;;;;17.70;16.07;;;24.60;99.90;;;;;;5061133;28;20924;-51
2021/06/20 03:19:41;;;;;;;18.30;16.50;;;24.60;99.90;;;;;;5057650;28;20451;-54
2021/06/20 03:22:08;;;;;;;18.27;16.37;;;24.70;99.90;;;;;;5057390;28;20497;-54
2021/06/20 03:24:38;;;;;;;19.03;15.93;;;24.60;99.90;;;;;;5056404;28;20518;-51
2021/06/20 03:27:05;;;;;;;18.10;16.17;;;24.60;99.90;;;;;;5056996;28;20842;-55
2021/06/20 03:29:32;;;;;;;21.57;17.60;;;24.60;99.90;;;;;;5057078;28;20447;-51
2021/06/20 03:31:58;;;;;;;25.93;17.83;;;24.70;99.90;;;;;;5056415;28;20517;-54
2021/06/20 03:34:25;;;;;;;21.00;17.37;;;24.70;99.90;;;;;;5057199;28;20760;-51
2021/06/20 03:36:52;;;;;;;17.83;15.93;;;24.70;99.90;;;;;;5057192;28;20457;-53
2021/06/20 03:39:18;;;;;;;16.53;14.97;;;24.70;99.90;;;;;;5056758;28;20782;-50
2021/06/20 03:41:47;;;;;;;22.30;17.13;;;24.80;99.90;;;;;;5057000;28;20513;-56
2021/06/20 03:44:13;;;;;;;19.27;17.33;;;24.80;99.90;;;;;;5056106;28;20505;-51
2021/06/20 03:46:40;;;;;;;20.13;16.80;;;24.80;99.90;;;;;;5058743;28;20788;-50
2021/06/20 03:49:07;;;;;;;19.73;16.70;;;24.80;99.90;;;;;;5054057;28;20450;-52
2021/06/20 03:51:34;;;;;;;18.00;16.37;;;24.90;99.90;;;;;;5054210;28;20482;-49
2021/06/20 03:54:01;;;;;;;19.20;17.20;;;24.90;99.90;;;;;;5054212;28;20478;-55
2021/06/20 03:56:28;;;;;;;18.57;16.77;;;24.90;99.90;;;;;;5053764;28;20943;-53
2021/06/20 03:58:56;;;;;;;18.77;16.83;;;24.90;99.90;;;;;;5053750;28;20459;-55
2021/06/20 04:01:23;;;;;;;23.40;17.97;;;24.90;99.90;;;;;;5053862;28;20497;-52
2021/06/20 04:03:49;;;;;;;18.73;17.00;;;24.90;99.90;;;;;;5054004;28;20467;-52
2021/06/20 04:06:16;;;;;;;18.73;16.73;;;24.90;99.90;;;;;;5053712;28;20450;-54
2021/06/20 04:08:42;;;;;;;18.70;16.83;;;24.80;99.90;;;;;;5053728;28;20502;-53
2021/06/20 04:11:09;;;;;;;19.77;17.77;;;24.70;99.90;;;;;;5053971;28;20536;-52
2021/06/20 04:13:36;;;;;;;18.47;16.87;;;24.80;99.90;;;;;;5053745;28;20442;-50
2021/06/20 04:16:04;;;;;;;17.77;15.57;;;24.80;99.90;;;;;;5053593;28;20912;-53
2021/06/20 04:18:31;;;;;;;17.00;15.50;;;24.80;99.90;;;;;;5053629;28;20432;-51
2021/06/20 04:20:58;;;;;;;20.13;16.13;;;24.90;99.90;;;;;;5053785;28;20508;-47
2021/06/20 04:23:24;;;;;;;19.20;17.40;;;24.90;99.90;;;;;;5053952;28;20827;-56
2021/06/20 04:25:51;;;;;;;19.53;17.67;;;24.90;99.90;;;;;;5053660;28;20471;-55
2021/06/20 04:28:19;;;;;;;18.13;16.23;;;24.90;99.90;;;;;;5053568;28;20944;-56
2021/06/20 04:30:47;;;;;;;19.30;17.27;;;24.90;99.90;;;;;;5053554;28;20774;-51
2021/06/20 04:33:15;;;;;;;21.03;18.93;;;25.00;99.90;;;;;;5053602;28;20490;-50
2021/06/20 04:35:42;;;;;;;19.70;17.73;;;25.00;99.90;;;;;;5053445;28;20444;-55
2021/06/20 04:38:08;;;;;;;19.77;17.90;;;25.10;99.90;;;;;;5053650;28;20442;-54
2021/06/20 04:40:35;;;;;;;22.03;17.83;;;25.10;99.90;;;;;;5053736;28;20459;-49
2021/06/20 04:43:07;;;;;;;21.70;19.60;;;25.20;99.90;;;;;;5053523;28;20450;-54
2021/06/20 04:45:34;;;;;;;20.70;18.80;;;25.30;99.90;;;;;;5053716;28;20475;-56
2021/06/20 04:48:01;;;;;;;18.80;17.10;;;25.40;99.90;;;;;;5053333;28;20424;-55
2021/06/20 04:50:29;;;;;;;19.07;17.37;;;25.40;99.90;;;;;;5053412;28;20455;-52
2021/06/20 04:52:56;;;;;;;19.80;17.47;;;25.50;99.90;;;;;;5053247;28;20482;-49
2021/06/20 04:55:23;;;;;;;21.63;19.33;;;25.50;99.90;;;;;;5053254;28;20887;-50
2021/06/20 04:57:50;;;;;;;20.27;18.33;;;25.60;99.90;;;;;;5053435;28;20822;-51
2021/06/20 05:00:17;;;;;;;19.40;17.67;;;25.70;99.90;;;;;;5053294;28;20505;-51
2021/06/20 05:02:43;;;;;;;20.73;18.83;;;25.80;99.90;;;;;;5053510;28;20521;-55
2021/06/20 05:05:12;;;;;;;21.03;19.03;;;25.80;99.90;;;;;;5053222;28;20928;-55
2021/06/20 05:07:40;;;;;;;23.03;20.53;;;25.90;99.90;;;;;;5053229;28;20452;-51
2021/06/20 05:10:08;;;;;;;20.60;18.70;;;26.00;99.90;;;;;;5054874;28;20458;-52
2021/06/20 05:12:35;;;;;;;22.70;20.63;;;26.10;99.90;;;;;;5057011;28;20479;-55
2021/06/20 05:15:01;;;;;;;22.97;20.90;;;26.20;99.90;;;;;;5056963;28;20920;-55
2021/06/20 05:17:28;;;;;;;23.10;21.20;;;26.30;99.90;;;;;;5057106;28;20451;-54
2021/06/20 05:19:55;;;;;;;23.77;19.90;;;26.40;99.90;;;;;;5056932;28;20443;-54
2021/06/20 05:22:22;;;;;;;22.80;20.80;;;26.50;99.90;;;;;;5057038;28;20504;-52
2021/06/20 05:24:49;;;;;;;23.43;21.07;;;26.50;99.90;;;;;;5056787;28;20455;-51
2021/06/20 05:27:17;;;;;;;22.77;20.70;;;26.60;99.90;;;;;;5057001;28;20513;-52
2021/06/20 05:29:43;;;;;;;23.90;21.80;;;26.60;99.90;;;;;;5056593;28;20476;-52
2021/06/20 05:32:10;;;;;;;25.40;22.87;;;26.70;99.90;;;;;;5056473;28;20471;-55
2021/06/20 05:34:37;;;;;;;22.33;20.17;;;26.80;99.90;;;;;;5056614;28;20516;-56
2021/06/20 05:37:04;;;;;;;24.50;22.00;;;26.90;99.90;;;;;;5056286;28;20532;-51
2021/06/20 05:39:30;;;;;;;24.43;22.13;;;27.00;99.90;;;;;;5056781;28;20447;-54
2021/06/20 05:41:59;;;;;;;25.07;22.83;;;27.00;99.90;;;;;;5056634;28;20828;-53
2021/06/20 05:44:25;;;;;;;25.30;23.10;;;27.10;99.90;;;;;;5056403;28;20451;-53
2021/06/20 05:46:52;;;;;;;24.77;22.37;;;27.20;99.90;;;;;;5059504;28;20524;-55
2021/06/20 05:49:20;;;;;;;25.53;22.97;;;27.20;99.90;;;;;;5056391;28;20447;-54
2021/06/20 05:51:46;;;;;;;24.17;21.83;;;27.30;99.90;;;;;;5056179;28;20970;-48
2021/06/20 05:54:13;;;;;;;25.50;23.10;;;27.40;99.90;;;;;;5056192;28;20999;-52
2021/06/20 05:56:40;;;;;;;25.87;23.47;;;27.50;99.90;;;;;;5056437;28;20435;-55
2021/06/20 05:59:08;;;;;;;24.83;22.70;;;27.50;99.90;;;;;;5056434;28;20474;-53
2021/06/20 06:01:35;;;;;;;25.87;23.27;;;27.60;99.90;;;;;;5057101;28;20545;-56
2021/06/20 06:04:02;;;;;;;24.57;22.50;;;27.60;99.90;;;;;;5056274;28;20450;-54
2021/06/20 06:06:28;;;;;;;27.03;23.90;;;27.70;99.90;;;;;;5056067;28;20470;-55
2021/06/20 06:08:55;;;;;;;23.77;21.67;;;27.70;99.90;;;;;;5055875;28;20536;-55
2021/06/20 06:11:22;;;;;;;26.47;24.07;;;27.80;99.90;;;;;;5055890;28;21147;-54
2021/06/20 06:13:48;;;;;;;24.53;22.47;;;27.90;99.90;;;;;;5056029;28;20583;-54
2021/06/20 06:16:17;;;;;;;25.97;23.77;;;27.90;99.90;;;;;;5055849;28;21135;-52
2021/06/20 06:18:43;;;;;;;25.43;23.23;;;28.00;99.90;;;;;;5055817;28;20816;-54
2021/06/20 06:21:10;;;;;;;26.37;23.93;;;28.10;99.90;;;;;;5055617;28;20455;-50
2021/06/20 06:23:37;;;;;;;28.47;24.43;;;28.20;99.90;;;;;;5055669;28;20443;-55
2021/06/20 06:26:03;;;;;;;26.73;24.03;;;28.20;99.90;;;;;;5055976;28;20672;-51
2021/06/20 06:28:30;;;;;;;26.47;23.97;;;28.30;99.90;;;;;;5055991;28;20789;-56
2021/06/20 09:59:42;;;;;;;13.40;12.17;;;37.30;64.00;;;;;;6121754;22;20371;-53
2021/06/20 10:02:11;;;;;;;17.07;13.93;;;37.80;62.30;;;;;;5075340;28;20509;-50
2021/06/20 10:04:39;;;;;;;16.77;12.33;;;38.20;60.50;;;;;;5076216;28;20960;-54
2021/06/20 10:07:07;;;;;;;14.20;11.53;;;38.70;59.40;;;;;;5076213;28;20469;-54
2021/06/20 10:09:35;;;;;;;12.83;11.63;;;39.10;57.30;;;;;;5076067;28;20449;-53
2021/06/20 10:12:03;;;;;;;13.27;12.17;;;39.30;57.00;;;;;;5068223;28;20505;-51
2021/06/20 10:14:31;;;;;;;14.73;13.10;;;39.50;56.20;;;;;;5068393;28;20443;-51
2021/06/20 10:17:06;;;;;;;12.23;11.20;;;39.80;55.30;;;;;;5067341;28;20524;-54
2021/06/20 10:19:33;;;;;;;14.17;12.13;;;39.80;54.20;;;;;;5069893;28;20530;-51
2021/06/20 10:22:02;;;;;;;13.70;11.50;;;39.70;53.60;;;;;;5066402;28;20438;-48
2021/06/20 10:24:28;;;;;;;16.90;12.03;;;39.40;53.60;;;;;;5067401;28;20462;-46
2021/06/20 10:27:00;;;;;;;16.70;12.53;;;39.20;53.80;;;;;;5066660;28;20495;-48
2021/06/20 10:29:29;;;;;;;14.40;11.93;;;38.90;54.50;;;;;;5069753;28;20632;-49
2021/06/20 10:31:57;;;;;;;15.40;13.30;;;38.80;54.80;;;;;;5067198;28;20451;-54
2021/06/20 10:34:27;;;;;;;15.57;12.53;;;38.80;55.20;;;;;;5061452;28;20576;-53
2021/06/20 10:36:56;;;;;;;17.80;14.20;;;38.90;55.30;;;;;;5056243;28;20842;-52
2021/06/20 10:39:24;;;;;;;13.37;12.07;;;38.90;55.40;;;;;;5054077;28;20459;-53
2021/06/20 10:42:03;;;;;;;15.27;13.43;;;38.50;55.90;;;;;;5055386;28;20447;-51
2021/06/20 10:44:41;;;;;;;13.97;12.50;;;38.40;56.20;;;;;;5055856;28;20447;-56
2021/06/20 10:47:08;;;;;;;13.33;12.00;;;38.20;56.60;;;;;;5055793;28;20427;-51
2021/06/20 10:49:36;;;;;;;14.20;12.70;;;38.20;57.10;;;;;;5055586;28;20470;-52
2021/06/20 10:52:15;;;;;;;15.33;13.73;;;37.90;57.50;;;;;;5055772;28;20537;-53
2021/06/20 10:54:41;;;;;;;17.30;14.17;;;37.60;58.00;;;;;;5055433;28;20453;-51
2021/06/20 10:57:08;;;;;;;15.87;12.50;;;37.60;58.00;;;;;;5055567;28;20466;-52
2021/06/20 10:59:35;;;;;;;17.50;13.70;;;37.50;57.70;;;;;;5055590;28;20447;-50
2021/06/20 11:02:02;;;;;;;13.70;12.30;;;37.20;58.20;;;;;;5054994;28;20536;-53
2021/06/20 11:04:28;;;;;;;15.73;13.63;;;37.20;58.90;;;;;;5055441;28;20451;-51
2021/06/20 11:06:58;;;;;;;16.47;14.17;;;37.40;59.40;;;;;;5054281;28;20486;-54
2021/06/20 11:09:35;;;;;;;21.00;14.17;;;37.40;58.80;;;;;;5055307;28;20461;-52
2021/06/20 11:12:05;;;;;;;16.33;12.87;;;37.40;58.00;;;;;;5055427;28;20438;-49
2021/06/20 11:14:42;;;;;;;16.00;11.87;;;37.30;58.20;;;;;;5054983;28;20483;-55
2021/06/20 11:17:09;;;;;;;20.77;12.67;;;37.30;57.80;;;;;;5055126;28;20443;-52
2021/06/20 11:19:36;;;;;;;16.77;12.80;;;37.20;58.60;;;;;;5054989;28;20447;-53
2021/06/20 11:22:06;;;;;;;15.73;11.20;;;37.30;58.00;;;;;;5055136;28;20439;-54
2021/06/20 11:24:38;;;;;;;16.83;11.60;;;37.20;57.20;;;;;;5054766;28;20458;-51
2021/06/20 11:27:06;;;;;;;18.07;11.43;;;37.10;57.60;;;;;;5054858;28;20439;-48
2021/06/20 11:29:41;;;;;;;16.10;10.80;;;37.10;58.00;;;;;;5054707;28;20447;-47
2021/06/20 11:32:14;;;;;;;17.40;10.90;;;37.20;57.50;;;;;;5054736;28;20449;-48
2021/06/20 11:34:44;;;;;;;14.73;10.30;;;37.20;56.30;;;;;;5055051;28;20474;-52
2021/06/20 11:37:18;;;;;;;23.97;11.93;;;36.90;56.60;;;;;;5054352;28;20521;-51
2021/06/20 11:39:48;;;;;;;17.17;11.00;;;36.80;57.20;;;;;;5054735;28;20443;-51
2021/06/20 11:42:24;;;;;;;18.20;10.47;;;36.80;57.20;;;;;;5059302;28;20762;-52
2021/06/20 11:44:58;;;;;;;17.77;12.87;;;36.80;57.60;;;;;;5072270;28;20450;-53
2021/06/20 11:47:32;;;;;;;11.80;10.57;;;36.90;57.80;;;;;;5074490;28;20446;-54
2021/06/20 11:50:14;;;;;;;18.33;10.77;;;36.90;58.00;;;;;;5074249;28;20430;-54
2021/06/20 11:52:44;;;;;;;20.37;11.67;;;36.90;57.50;;;;;;5070883;28;20814;-53
2021/06/20 11:55:13;;;;;;;17.03;10.80;;;36.70;57.30;;;;;;5063792;28;20440;-53
2021/06/20 11:57:40;;;;;;;16.93;10.60;;;36.20;57.70;;;;;;5055074;28;20443;-52
2021/06/20 12:00:12;;;;;;;14.50;11.40;;;36.10;57.90;;;;;;5054229;28;20915;-51
2021/06/20 12:02:40;;;;;;;21.90;11.73;;;36.10;57.60;;;;;;5054438;28;20459;-54
2021/06/20 12:05:14;;;;;;;13.50;9.03;;;36.10;57.30;;;;;;5054310;28;20965;-53
2021/06/20 12:07:46;;;;;;;13.43;10.87;;;36.10;56.60;;;;;;5053286;28;20434;-54
2021/06/20 12:10:14;;;;;;;18.57;10.43;;;35.70;57.20;;;;;;5053714;28;20443;-54
2021/06/20 12:12:42;;;;;;;17.70;10.40;;;35.50;57.80;;;;;;5054081;28;20458;-53
2021/06/20 12:15:09;;;;;;;11.90;9.53;;;35.30;58.60;;;;;;5054149;28;20458;-54
2021/06/20 12:17:39;;;;;;;18.93;11.50;;;35.30;57.80;;;;;;5053785;28;20451;-55
2021/06/20 12:20:07;;;;;;;14.80;12.27;;;35.30;58.30;;;;;;5053694;28;20510;-55
2021/06/20 12:22:46;;;;;;;10.90;8.90;;;35.20;57.50;;;;;;5054124;28;20447;-53
2021/06/20 12:25:13;;;;;;;10.53;9.07;;;35.30;57.80;;;;;;5054010;28;20523;-52
2021/06/20 12:27:40;;;;;;;12.47;9.97;;;35.20;58.00;;;;;;5053634;28;20479;-51
2021/06/20 12:30:16;;;;;;;19.60;9.00;;;35.10;58.80;;;;;;5053492;28;20466;-55
2021/06/20 12:32:43;;;;;;;13.23;10.00;;;35.20;57.60;;;;;;5053858;28;20435;-51
2021/06/20 12:35:19;;;;;;;11.87;7.87;;;35.20;57.70;;;;;;5053566;28;20479;-54
2021/06/20 12:37:49;;;;;;;14.80;8.57;;;35.40;57.50;;;;;;5053823;28;20442;-50
2021/06/20 12:40:17;;;;;;;13.93;9.27;;;35.50;57.40;;;;;;5053907;28;20509;-52
2021/06/20 12:42:46;;;;;;;12.93;9.53;;;35.60;57.20;;;;;;5053583;28;20550;-49
2021/06/20 12:45:22;;;;;;;16.50;9.53;;;35.60;56.70;;;;;;5053547;28;20443;-46
2021/06/20 12:47:50;;;;;;;10.90;9.20;;;35.60;56.80;;;;;;5053569;28;20443;-49
2021/06/20 12:50:25;;;;;;;16.57;11.53;;;35.50;56.20;;;;;;5053731;28;20769;-49
2021/06/20 12:52:54;;;;;;;15.03;7.80;;;35.30;57.10;;;;;;5053740;28;20473;-54
2021/06/20 12:55:22;;;;;;;15.20;9.60;;;35.30;57.60;;;;;;5053491;28;20492;-53
2021/06/20 12:57:51;;;;;;;9.87;8.07;;;35.10;57.10;;;;;;5053656;28;20798;-52
2021/06/20 13:00:22;;;;;;;12.13;8.43;;;34.80;56.50;;;;;;5053351;28;20483;-52
2021/06/20 13:02:51;;;;;;;12.40;10.30;;;34.50;57.30;;;;;;5053410;28;20447;-52
2021/06/20 13:05:29;;;;;;;10.20;9.30;;;34.50;58.70;;;;;;5053201;28;20848;-52
2021/06/20 13:07:57;;;;;;;14.43;10.20;;;34.50;59.50;;;;;;5053105;28;20458;-51
2021/06/20 13:10:24;;;;;;;15.10;9.03;;;34.50;59.40;;;;;;5053552;28;20835;-53
2021/06/20 13:12:51;;;;;;;11.50;10.17;;;34.50;59.50;;;;;;5053387;28;20441;-52
2021/06/20 13:15:19;;;;;;;14.50;9.77;;;34.50;59.60;;;;;;5053287;28;20479;-49
2021/06/20 13:17:46;;;;;;;16.20;9.30;;;34.40;59.10;;;;;;5053481;28;20901;-51
2021/06/20 13:20:15;;;;;;;15.03;9.43;;;34.50;59.50;;;;;;5053409;28;20465;-47
2021/06/20 13:22:44;;;;;;;17.30;10.13;;;34.60;59.40;;;;;;5053491;28;20446;-50
2021/06/20 13:25:13;;;;;;;14.80;10.60;;;34.80;58.70;;;;;;5053474;28;20451;-52
2021/06/20 13:27:40;;;;;;;11.23;9.13;;;34.90;58.40;;;;;;5053293;28;20443;-53
2021/06/20 13:30:09;;;;;;;10.23;8.67;;;34.90;58.20;;;;;;5053520;28;20443;-54
2021/06/20 13:32:37;;;;;;;9.80;8.53;;;34.80;58.40;;;;;;5057091;28;20792;-51
2021/06/20 13:35:04;;;;;;;10.57;8.90;;;34.90;58.00;;;;;;5056803;28;20475;-54
2021/06/20 13:37:31;;;;;;;13.30;9.13;;;35.10;57.70;;;;;;5057295;28;20447;-53
2021/06/20 13:39:58;;;;;;;13.17;8.30;;;35.40;57.40;;;;;;5057071;28;20460;-53
2021/06/20 13:42:27;;;;;;;14.63;9.20;;;35.70;56.50;;;;;;5057053;28;20466;-53
2021/06/20 13:44:53;;;;;;;9.07;8.27;;;35.80;56.10;;;;;;5056637;28;20435;-54
2021/06/20 13:47:20;;;;;;;17.20;9.70;;;35.80;56.20;;;;;;5056880;28;20439;-53
2021/06/20 13:49:47;;;;;;;12.63;9.77;;;35.80;56.30;;;;;;5056959;28;20828;-55
2021/06/20 13:52:14;;;;;;;12.63;8.13;;;35.90;56.00;;;;;;5056785;28;20459;-52
2021/06/20 13:54:41;;;;;;;15.10;9.40;;;35.90;55.50;;;;;;5056788;28;20994;-52
2021/06/20 13:57:08;;;;;;;15.70;10.10;;;36.00;55.60;;;;;;5056807;28;20521;-54
2021/06/20 13:59:36;;;;;;;13.93;8.80;;;36.00;55.60;;;;;;5057102;28;20558;-52
2021/06/20 14:02:04;;;;;;;11.87;9.33;;;36.10;55.70;;;;;;5057073;28;20439;-53
2021/06/20 14:04:30;;;;;;;13.00;9.17;;;36.20;56.10;;;;;;5056878;28;20497;-55
2021/06/20 14:06:57;;;;;;;9.70;8.80;;;36.00;55.50;;;;;;5056938;28;20451;-53
2021/06/20 14:09:24;;;;;;;9.30;7.50;;;36.10;54.80;;;;;;5056825;28;20443;-50
2021/06/20 14:11:50;;;;;;;11.90;10.17;;;36.00;54.20;;;;;;5056599;28;20477;-54
2021/06/20 14:14:17;;;;;;;10.60;8.30;;;35.70;54.90;;;;;;5056269;28;20479;-54
2021/06/20 14:16:45;;;;;;;8.97;7.83;;;35.60;54.60;;;;;;5056370;28;20482;-54
2021/06/20 14:19:12;;;;;;;8.00;5.73;;;35.50;53.20;;;;;;5056321;28;20458;-53
2021/06/20 14:21:38;;;;;;;12.63;5.30;;;35.40;51.50;;;;;;5056270;28;20447;-54
2021/06/20 14:24:07;;;;;;;9.47;5.43;;;35.40;51.50;;;;;;5055856;28;20443;-52
2021/06/20 14:26:34;;;;;;;11.37;6.07;;;35.50;51.40;;;;;;5056097;28;20454;-54
2021/06/20 14:29:01;;;;;;;9.60;6.73;;;35.40;51.60;;;;;;5055829;28;20477;-51
2021/06/20 14:31:27;;;;;;;12.90;5.23;;;35.40;51.50;;;;;;5055964;28;20454;-51
2021/06/20 14:33:55;;;;;;;8.40;6.63;;;35.20;50.90;;;;;;5055890;28;20479;-53
2021/06/20 14:36:22;;;;;;;8.43;5.10;;;35.00;50.80;;;;;;5055782;28;20908;-54
2021/06/20 14:38:49;;;;;;;7.07;4.60;;;35.00;50.70;;;;;;5055685;28;20451;-52
2021/06/20 14:41:16;;;;;;;6.30;5.13;;;35.00;50.90;;;;;;5055900;28;20467;-53
2021/06/20 14:43:44;;;;;;;8.27;5.07;;;35.00;50.80;;;;;;5055523;28;20451;-51
2021/06/20 14:46:10;;;;;;;9.77;5.10;;;34.90;50.80;;;;;;5055774;28;20478;-53
2021/06/20 14:48:37;;;;;;;9.30;5.03;;;34.90;50.90;;;;;;5055497;28;20459;-55
2021/06/20 14:51:06;;;;;;;8.73;5.07;;;34.90;50.90;;;;;;5055796;28;20605;-52
2021/06/20 14:53:33;;;;;;;10.17;5.27;;;34.90;51.10;;;;;;5055657;28;20518;-47
2021/06/20 14:56:00;;;;;;;5.10;4.60;;;35.00;50.90;;;;;;5055272;28;20447;-52
2021/06/20 14:58:27;;;;;;;6.67;4.17;;;35.00;50.20;;;;;;5055260;28;20504;-51
2021/06/20 15:00:54;;;;;;;7.70;4.27;;;35.00;49.10;;;;;;5055068;28;20566;-54
2021/06/20 15:03:21;;;;;;;7.17;4.83;;;35.00;48.70;;;;;;5055200;28;20443;-49
2021/06/20 15:05:48;;;;;;;7.47;5.27;;;35.10;49.40;;;;;;5055167;28;20466;-52
2021/06/20 15:08:16;;;;;;;6.10;4.93;;;35.20;50.20;;;;;;5055293;28;20443;-47
2021/06/20 15:10:43;;;;;;;4.90;4.50;;;35.20;50.90;;;;;;5055288;28;20450;-54
2021/06/20 15:13:10;;;;;;;10.10;4.23;;;35.30;51.30;;;;;;5054961;28;20454;-49
2021/06/20 15:15:37;;;;;;;5.93;4.30;;;35.30;50.10;;;;;;5054824;28;20486;-50
2021/06/20 15:18:03;;;;;;;8.13;6.30;;;35.20;49.50;;;;;;5054990;28;20443;-52
2021/06/20 15:20:30;;;;;;;6.20;4.67;;;35.10;49.10;;;;;;5054924;28;20455;-54
2021/06/20 15:22:57;;;;;;;5.00;4.07;;;35.10;48.90;;;;;;5054865;28;20458;-52
2021/06/20 15:25:29;;;;;;;11.10;4.60;;;35.10;48.80;;;;;;5054783;28;20447;-52
2021/06/20 15:27:56;;;;;;;7.80;3.30;;;35.10;49.00;;;;;;5055022;28;20463;-50
2021/06/20 15:30:23;;;;;;;5.97;3.50;;;35.10;49.00;;;;;;5054575;28;20466;-54
2021/06/20 15:32:52;;;;;;;6.30;3.90;;;35.10;47.30;;;;;;5054938;28;20923;-53
2021/06/20 15:35:20;;;;;;;5.90;4.20;;;34.90;47.70;;;;;;5054510;28;20471;-52
2021/06/20 15:37:48;;;;;;;6.47;4.17;;;34.70;47.30;;;;;;5054546;28;20505;-53
2021/06/20 15:40:16;;;;;;;6.20;4.40;;;34.50;47.30;;;;;;5054422;28;20459;-55
2021/06/20 15:42:45;;;;;;;6.17;4.30;;;34.30;47.70;;;;;;5054782;28;20810;-54
2021/06/20 15:45:16;;;;;;;6.93;4.77;;;34.20;48.40;;;;;;5054399;28;20451;-55
2021/06/20 15:47:45;;;;;;;6.67;5.50;;;34.00;48.90;;;;;;5054742;28;20521;-54
2021/06/20 15:50:13;;;;;;;5.67;4.03;;;34.00;49.20;;;;;;5054300;28;20477;-50
2021/06/20 15:52:40;;;;;;;11.87;7.27;;;34.00;48.70;;;;;;5054263;28;20842;-52
2021/06/20 15:55:09;;;;;;;11.77;4.50;;;33.90;49.30;;;;;;5053725;28;20564;-53
2021/06/20 15:57:36;;;;;;;4.70;4.10;;;33.90;49.50;;;;;;5054331;28;20460;-49
2021/06/20 16:00:08;;;;;;;4.03;2.93;;;33.80;49.30;;;;;;5054164;28;20475;-50
2021/06/20 16:02:36;;;;;;;8.43;4.27;;;33.80;48.80;;;;;;5054063;28;20497;-47